Terminal Aerodrome Forecast
Issued by NWS

Home | Current Version | Previous Version | Graphics & Text | Print | Product List | Glossary On
Versions: 1 2 3 4 5 6 7 8 9 10 11 12 13 14 15 16 17 18 19 20 21 22 23 24 25 26 27 28 29 30 31 32 33 34 35 36 37 38
000
FTUS43 KGRB 271216 AAA
TAFRHI
TAF AMD
KRHI 271216Z 2712/2812 22006KT 6SM BR SCT006 SCT080
      TEMPO 2712/2714 4SM BR BKN004
     FM271400 23005KT P6SM SCT015 SCT040
     FM271600 25008KT P6SM SCT050 BKN090
     FM272200 26004KT P6SM SCT040 BKN080 PROB30 2806/2812 3SM -SHRA
      BKN040=

USA.gov is the U.S. government's official web portal to all federal, state and local government web resources and services.